sensor_id;sensor_type;location;lat;lon;timestamp;P1;durP1;ratioP1;P2;durP2;ratioP2
13218;SDS011;6674;49.152;11.918;2023-02-19T00:01:39;5.37;;;4.97;;
13218;SDS011;6674;49.152;11.918;2023-02-19T00:04:08;5.90;;;5.40;;
13218;SDS011;6674;49.152;11.918;2023-02-19T00:06:37;5.47;;;5.07;;
13218;SDS011;6674;49.152;11.918;2023-02-19T00:09:05;6.00;;;5.60;;
13218;SDS011;6674;49.152;11.918;2023-02-19T00:11:38;5.30;;;4.90;;
13218;SDS011;6674;49.152;11.918;2023-02-19T00:14:05;5.60;;;5.20;;
13218;SDS011;6674;49.152;11.918;2023-02-19T00:16:33;5.70;;;5.30;;
13218;SDS011;6674;49.152;11.918;2023-02-19T00:19:03;5.53;;;5.00;;
13218;SDS011;6674;49.152;11.918;2023-02-19T00:21:32;5.30;;;4.90;;
13218;SDS011;6674;49.152;11.918;2023-02-19T00:24:01;6.27;;;5.77;;
13218;SDS011;6674;49.152;11.918;2023-02-19T00:26:29;5.67;;;5.27;;
13218;SDS011;6674;49.152;11.918;2023-02-19T00:28:56;6.43;;;5.87;;
13218;SDS011;6674;49.152;11.918;2023-02-19T00:31:24;6.30;;;5.80;;
13218;SDS011;6674;49.152;11.918;2023-02-19T00:33:52;6.43;;;5.93;;
13218;SDS011;6674;49.152;11.918;2023-02-19T00:36:20;5.30;;;4.90;;
13218;SDS011;6674;49.152;11.918;2023-02-19T00:38:48;5.57;;;5.17;;
13218;SDS011;6674;49.152;11.918;2023-02-19T00:41:15;4.70;;;4.40;;
13218;SDS011;6674;49.152;11.918;2023-02-19T00:43:47;5.07;;;4.67;;
13218;SDS011;6674;49.152;11.918;2023-02-19T00:46:16;5.13;;;4.73;;
13218;SDS011;6674;49.152;11.918;2023-02-19T00:48:43;4.40;;;4.10;;
13218;SDS011;6674;49.152;11.918;2023-02-19T00:51:10;5.23;;;4.73;;
13218;SDS011;6674;49.152;11.918;2023-02-19T00:53:38;5.33;;;4.93;;
13218;SDS011;6674;49.152;11.918;2023-02-19T00:56:05;4.63;;;4.30;;
13218;SDS011;6674;49.152;11.918;2023-02-19T00:58:33;4.90;;;4.50;;
13218;SDS011;6674;49.152;11.918;2023-02-19T01:01:00;5.63;;;5.13;;
13218;SDS011;6674;49.152;11.918;2023-02-19T01:03:29;4.47;;;4.17;;
13218;SDS011;6674;49.152;11.918;2023-02-19T01:05:57;5.10;;;4.67;;
13218;SDS011;6674;49.152;11.918;2023-02-19T01:08:24;4.50;;;3.97;;
13218;SDS011;6674;49.152;11.918;2023-02-19T01:10:52;5.17;;;4.77;;
13218;SDS011;6674;49.152;11.918;2023-02-19T01:13:19;3.93;;;3.63;;
13218;SDS011;6674;49.152;11.918;2023-02-19T01:15:46;3.87;;;3.57;;
13218;SDS011;6674;49.152;11.918;2023-02-19T01:18:12;4.20;;;3.40;;
13218;SDS011;6674;49.152;11.918;2023-02-19T01:20:40;2.90;;;2.70;;
13218;SDS011;6674;49.152;11.918;2023-02-19T01:23:08;3.20;;;2.90;;
13218;SDS011;6674;49.152;11.918;2023-02-19T01:25:37;3.00;;;2.80;;
13218;SDS011;6674;49.152;11.918;2023-02-19T01:28:05;2.87;;;2.67;;
13218;SDS011;6674;49.152;11.918;2023-02-19T01:30:32;3.20;;;3.00;;
13218;SDS011;6674;49.152;11.918;2023-02-19T01:33:01;2.80;;;2.60;;
13218;SDS011;6674;49.152;11.918;2023-02-19T01:35:27;2.33;;;2.20;;
13218;SDS011;6674;49.152;11.918;2023-02-19T01:37:54;2.40;;;2.30;;
13218;SDS011;6674;49.152;11.918;2023-02-19T01:40:21;2.47;;;2.10;;
13218;SDS011;6674;49.152;11.918;2023-02-19T01:42:47;1.80;;;1.70;;
13218;SDS011;6674;49.152;11.918;2023-02-19T01:45:17;1.90;;;1.80;;
13218;SDS011;6674;49.152;11.918;2023-02-19T01:47:50;1.80;;;1.70;;
13218;SDS011;6674;49.152;11.918;2023-02-19T01:50:25;1.80;;;1.70;;
13218;SDS011;6674;49.152;11.918;2023-02-19T01:52:54;1.50;;;1.40;;
13218;SDS011;6674;49.152;11.918;2023-02-19T01:55:21;1.70;;;1.60;;
13218;SDS011;6674;49.152;11.918;2023-02-19T01:57:49;1.37;;;1.33;;
13218;SDS011;6674;49.152;11.918;2023-02-19T02:00:21;1.60;;;1.40;;
13218;SDS011;6674;49.152;11.918;2023-02-19T02:02:50;1.27;;;1.17;;
13218;SDS011;6674;49.152;11.918;2023-02-19T02:05:22;0.97;;;0.90;;
13218;SDS011;6674;49.152;11.918;2023-02-19T02:07:56;1.57;;;1.47;;
13218;SDS011;6674;49.152;11.918;2023-02-19T02:10:42;1.23;;;1.13;;
13218;SDS011;6674;49.152;11.918;2023-02-19T02:13:09;1.03;;;1.03;;
13218;SDS011;6674;49.152;11.918;2023-02-19T02:15:38;1.20;;;1.10;;
13218;SDS011;6674;49.152;11.918;2023-02-19T02:18:15;1.00;;;1.00;;
13218;SDS011;6674;49.152;11.918;2023-02-19T02:21:02;1.10;;;1.10;;
13218;SDS011;6674;49.152;11.918;2023-02-19T02:23:43;1.53;;;1.40;;
13218;SDS011;6674;49.152;11.918;2023-02-19T02:26:24;1.20;;;1.10;;
13218;SDS011;6674;49.152;11.918;2023-02-19T02:29:10;1.30;;;1.20;;
13218;SDS011;6674;49.152;11.918;2023-02-19T02:31:49;0.93;;;0.93;;
13218;SDS011;6674;49.152;11.918;2023-02-19T02:34:22;0.50;;;0.50;;
13218;SDS011;6674;49.152;11.918;2023-02-19T02:36:55;0.50;;;0.50;;
13218;SDS011;6674;49.152;11.918;2023-02-19T02:39:23;0.57;;;0.57;;
13218;SDS011;6674;49.152;11.918;2023-02-19T02:41:54;0.60;;;0.60;;
13218;SDS011;6674;49.152;11.918;2023-02-19T02:44:38;0.77;;;0.47;;
13218;SDS011;6674;49.152;11.918;2023-02-19T02:47:08;0.40;;;0.40;;
13218;SDS011;6674;49.152;11.918;2023-02-19T02:49:56;0.67;;;0.43;;
13218;SDS011;6674;49.152;11.918;2023-02-19T02:52:30;0.50;;;0.40;;
13218;SDS011;6674;49.152;11.918;2023-02-19T02:55:16;0.50;;;0.50;;
13218;SDS011;6674;49.152;11.918;2023-02-19T02:57:42;0.63;;;0.60;;
13218;SDS011;6674;49.152;11.918;2023-02-19T03:00:10;0.67;;;0.67;;
13218;SDS011;6674;49.152;11.918;2023-02-19T03:02:38;0.50;;;0.50;;
13218;SDS011;6674;49.152;11.918;2023-02-19T03:08:29;0.80;;;0.80;;
13218;SDS011;6674;49.152;11.918;2023-02-19T03:11:02;0.57;;;0.57;;
13218;SDS011;6674;49.152;11.918;2023-02-19T03:13:45;0.80;;;0.80;;
13218;SDS011;6674;49.152;11.918;2023-02-19T03:16:31;0.70;;;0.70;;
13218;SDS011;6674;49.152;11.918;2023-02-19T03:19:20;0.73;;;0.73;;
13218;SDS011;6674;49.152;11.918;2023-02-19T03:21:50;0.50;;;0.50;;
13218;SDS011;6674;49.152;11.918;2023-02-19T03:24:20;0.67;;;0.60;;
13218;SDS011;6674;49.152;11.918;2023-02-19T03:27:07;0.50;;;0.50;;
13218;SDS011;6674;49.152;11.918;2023-02-19T03:29:36;0.30;;;0.30;;
13218;SDS011;6674;49.152;11.918;2023-02-19T03:32:05;0.40;;;0.40;;
13218;SDS011;6674;49.152;11.918;2023-02-19T03:34:39;0.40;;;0.40;;
13218;SDS011;6674;49.152;11.918;2023-02-19T03:37:11;0.30;;;0.30;;
13218;SDS011;6674;49.152;11.918;2023-02-19T03:39:41;0.83;;;0.30;;
13218;SDS011;6674;49.152;11.918;2023-02-19T03:42:15;0.30;;;0.30;;
13218;SDS011;6674;49.152;11.918;2023-02-19T03:44:51;0.33;;;0.33;;
13218;SDS011;6674;49.152;11.918;2023-02-19T03:47:25;0.20;;;0.20;;
13218;SDS011;6674;49.152;11.918;2023-02-19T03:49:57;0.30;;;0.30;;
13218;SDS011;6674;49.152;11.918;2023-02-19T03:52:35;0.30;;;0.30;;
13218;SDS011;6674;49.152;11.918;2023-02-19T03:55:07;0.30;;;0.30;;
13218;SDS011;6674;49.152;11.918;2023-02-19T03:57:40;0.30;;;0.30;;
13218;SDS011;6674;49.152;11.918;2023-02-19T04:00:20;0.30;;;0.30;;
13218;SDS011;6674;49.152;11.918;2023-02-19T04:02:55;0.10;;;0.10;;
13218;SDS011;6674;49.152;11.918;2023-02-19T04:05:28;0.10;;;0.10;;
13218;SDS011;6674;49.152;11.918;2023-02-19T04:08:03;0.10;;;0.10;;
13218;SDS011;6674;49.152;11.918;2023-02-19T04:10:35;0.23;;;0.23;;
13218;SDS011;6674;49.152;11.918;2023-02-19T04:13:05;0.10;;;0.10;;
13218;SDS011;6674;49.152;11.918;2023-02-19T04:15:37;0.20;;;0.20;;
13218;SDS011;6674;49.152;11.918;2023-02-19T04:18:08;0.20;;;0.20;;
13218;SDS011;6674;49.152;11.918;2023-02-19T04:20:41;0.20;;;0.20;;
13218;SDS011;6674;49.152;11.918;2023-02-19T04:23:10;0.83;;;0.13;;
13218;SDS011;6674;49.152;11.918;2023-02-19T04:25:38;0.47;;;0.20;;
13218;SDS011;6674;49.152;11.918;2023-02-19T04:28:08;0.20;;;0.20;;
13218;SDS011;6674;49.152;11.918;2023-02-19T04:30:36;0.20;;;0.20;;
13218;SDS011;6674;49.152;11.918;2023-02-19T04:33:03;0.20;;;0.20;;
13218;SDS011;6674;49.152;11.918;2023-02-19T04:35:31;0.40;;;0.40;;
13218;SDS011;6674;49.152;11.918;2023-02-19T04:38:00;0.30;;;0.30;;
13218;SDS011;6674;49.152;11.918;2023-02-19T04:40:26;0.23;;;0.20;;
13218;SDS011;6674;49.152;11.918;2023-02-19T04:42:53;0.50;;;0.50;;
13218;SDS011;6674;49.152;11.918;2023-02-19T04:45:21;0.40;;;0.40;;
13218;SDS011;6674;49.152;11.918;2023-02-19T04:47:47;0.50;;;0.50;;
13218;SDS011;6674;49.152;11.918;2023-02-19T04:50:14;0.40;;;0.40;;
13218;SDS011;6674;49.152;11.918;2023-02-19T04:52:41;0.93;;;0.50;;
13218;SDS011;6674;49.152;11.918;2023-02-19T04:55:09;0.73;;;0.40;;
13218;SDS011;6674;49.152;11.918;2023-02-19T04:57:37;0.40;;;0.40;;
13218;SDS011;6674;49.152;11.918;2023-02-19T05:00:04;0.60;;;0.60;;
13218;SDS011;6674;49.152;11.918;2023-02-19T05:02:34;0.30;;;0.30;;
13218;SDS011;6674;49.152;11.918;2023-02-19T05:05:00;0.70;;;0.70;;
13218;SDS011;6674;49.152;11.918;2023-02-19T05:07:29;0.50;;;0.50;;
13218;SDS011;6674;49.152;11.918;2023-02-19T05:09:56;0.50;;;0.50;;
13218;SDS011;6674;49.152;11.918;2023-02-19T05:12:25;0.50;;;0.50;;
13218;SDS011;6674;49.152;11.918;2023-02-19T05:14:53;0.60;;;0.60;;
13218;SDS011;6674;49.152;11.918;2023-02-19T05:17:19;1.07;;;1.07;;
13218;SDS011;6674;49.152;11.918;2023-02-19T05:19:46;0.70;;;0.70;;
13218;SDS011;6674;49.152;11.918;2023-02-19T05:22:12;0.60;;;0.60;;
13218;SDS011;6674;49.152;11.918;2023-02-19T05:24:39;0.73;;;0.73;;
13218;SDS011;6674;49.152;11.918;2023-02-19T05:27:06;0.70;;;0.70;;
13218;SDS011;6674;49.152;11.918;2023-02-19T05:29:34;0.67;;;0.67;;
13218;SDS011;6674;49.152;11.918;2023-02-19T05:32:00;0.80;;;0.80;;
13218;SDS011;6674;49.152;11.918;2023-02-19T05:34:27;0.67;;;0.67;;
13218;SDS011;6674;49.152;11.918;2023-02-19T05:36:53;0.70;;;0.70;;
13218;SDS011;6674;49.152;11.918;2023-02-19T05:39:20;0.97;;;0.97;;
13218;SDS011;6674;49.152;11.918;2023-02-19T05:41:46;1.20;;;1.20;;
13218;SDS011;6674;49.152;11.918;2023-02-19T05:44:13;0.90;;;0.90;;
13218;SDS011;6674;49.152;11.918;2023-02-19T05:46:41;1.30;;;1.20;;
13218;SDS011;6674;49.152;11.918;2023-02-19T05:49:09;1.30;;;1.20;;
13218;SDS011;6674;49.152;11.918;2023-02-19T05:51:35;1.60;;;1.50;;
13218;SDS011;6674;49.152;11.918;2023-02-19T05:54:02;1.70;;;1.60;;
13218;SDS011;6674;49.152;11.918;2023-02-19T05:56:30;1.70;;;1.60;;
13218;SDS011;6674;49.152;11.918;2023-02-19T05:59:00;1.97;;;1.87;;
13218;SDS011;6674;49.152;11.918;2023-02-19T06:01:31;1.70;;;1.60;;
13218;SDS011;6674;49.152;11.918;2023-02-19T06:03:59;1.93;;;1.83;;
13218;SDS011;6674;49.152;11.918;2023-02-19T06:06:26;2.33;;;2.13;;
13218;SDS011;6674;49.152;11.918;2023-02-19T06:08:54;2.10;;;2.00;;
13218;SDS011;6674;49.152;11.918;2023-02-19T06:11:21;2.33;;;2.13;;
13218;SDS011;6674;49.152;11.918;2023-02-19T06:13:50;2.67;;;2.47;;
13218;SDS011;6674;49.152;11.918;2023-02-19T06:16:17;2.90;;;2.70;;
13218;SDS011;6674;49.152;11.918;2023-02-19T06:18:44;3.40;;;3.10;;
13218;SDS011;6674;49.152;11.918;2023-02-19T06:21:12;3.40;;;3.20;;
13218;SDS011;6674;49.152;11.918;2023-02-19T06:23:40;2.77;;;2.57;;
13218;SDS011;6674;49.152;11.918;2023-02-19T06:26:08;3.10;;;2.80;;
13218;SDS011;6674;49.152;11.918;2023-02-19T06:28:36;3.33;;;3.13;;
13218;SDS011;6674;49.152;11.918;2023-02-19T06:31:03;3.30;;;3.10;;
13218;SDS011;6674;49.152;11.918;2023-02-19T06:33:30;3.27;;;3.03;;
13218;SDS011;6674;49.152;11.918;2023-02-19T06:35:58;3.13;;;2.93;;
13218;SDS011;6674;49.152;11.918;2023-02-19T06:38:27;3.63;;;3.33;;
13218;SDS011;6674;49.152;11.918;2023-02-19T06:40:58;3.50;;;3.20;;
13218;SDS011;6674;49.152;11.918;2023-02-19T06:43:25;3.63;;;3.40;;
13218;SDS011;6674;49.152;11.918;2023-02-19T06:45:52;3.20;;;3.00;;
13218;SDS011;6674;49.152;11.918;2023-02-19T06:48:20;3.70;;;3.40;;
13218;SDS011;6674;49.152;11.918;2023-02-19T06:50:46;4.20;;;3.90;;
13218;SDS011;6674;49.152;11.918;2023-02-19T06:53:13;3.60;;;3.30;;
13218;SDS011;6674;49.152;11.918;2023-02-19T06:55:41;3.30;;;3.10;;
13218;SDS011;6674;49.152;11.918;2023-02-19T06:58:08;3.80;;;3.50;;
13218;SDS011;6674;49.152;11.918;2023-02-19T07:00:34;3.80;;;3.50;;
13218;SDS011;6674;49.152;11.918;2023-02-19T07:03:01;3.50;;;3.30;;
13218;SDS011;6674;49.152;11.918;2023-02-19T07:05:28;3.30;;;3.10;;
13218;SDS011;6674;49.152;11.918;2023-02-19T07:07:55;3.33;;;3.13;;
13218;SDS011;6674;49.152;11.918;2023-02-19T07:10:22;3.57;;;3.37;;
13218;SDS011;6674;49.152;11.918;2023-02-19T07:12:50;3.73;;;3.43;;
13218;SDS011;6674;49.152;11.918;2023-02-19T07:15:18;3.50;;;3.30;;
13218;SDS011;6674;49.152;11.918;2023-02-19T07:17:46;3.30;;;3.10;;
13218;SDS011;6674;49.152;11.918;2023-02-19T07:20:12;3.27;;;3.07;;
13218;SDS011;6674;49.152;11.918;2023-02-19T07:22:40;3.40;;;3.20;;
13218;SDS011;6674;49.152;11.918;2023-02-19T07:25:07;3.60;;;3.30;;
13218;SDS011;6674;49.152;11.918;2023-02-19T07:27:34;3.50;;;3.30;;
13218;SDS011;6674;49.152;11.918;2023-02-19T07:30:03;3.90;;;3.60;;
13218;SDS011;6674;49.152;11.918;2023-02-19T07:32:30;3.67;;;3.37;;
13218;SDS011;6674;49.152;11.918;2023-02-19T07:34:56;3.30;;;3.10;;
13218;SDS011;6674;49.152;11.918;2023-02-19T07:37:23;3.10;;;2.90;;
13218;SDS011;6674;49.152;11.918;2023-02-19T07:39:51;3.20;;;3.00;;
13218;SDS011;6674;49.152;11.918;2023-02-19T07:42:17;3.03;;;2.83;;
13218;SDS011;6674;49.152;11.918;2023-02-19T07:44:44;3.27;;;3.07;;
13218;SDS011;6674;49.152;11.918;2023-02-19T07:47:12;2.90;;;2.70;;
13218;SDS011;6674;49.152;11.918;2023-02-19T07:49:38;3.03;;;2.83;;
13218;SDS011;6674;49.152;11.918;2023-02-19T07:52:05;3.50;;;3.30;;
13218;SDS011;6674;49.152;11.918;2023-02-19T07:54:33;3.20;;;3.00;;
13218;SDS011;6674;49.152;11.918;2023-02-19T07:56:59;2.73;;;2.53;;
13218;SDS011;6674;49.152;11.918;2023-02-19T07:59:26;2.90;;;2.70;;
13218;SDS011;6674;49.152;11.918;2023-02-19T08:01:52;2.37;;;2.27;;
13218;SDS011;6674;49.152;11.918;2023-02-19T08:04:38;2.90;;;2.70;;
13218;SDS011;6674;49.152;11.918;2023-02-19T08:07:05;2.27;;;2.07;;
13218;SDS011;6674;49.152;11.918;2023-02-19T08:09:32;2.47;;;2.27;;
13218;SDS011;6674;49.152;11.918;2023-02-19T08:11:58;2.33;;;2.23;;
13218;SDS011;6674;49.152;11.918;2023-02-19T08:14:43;1.97;;;1.87;;
13218;SDS011;6674;49.152;11.918;2023-02-19T08:17:09;1.83;;;1.73;;
13218;SDS011;6674;49.152;11.918;2023-02-19T08:19:36;2.10;;;1.90;;
13218;SDS011;6674;49.152;11.918;2023-02-19T08:22:04;1.83;;;1.73;;
13218;SDS011;6674;49.152;11.918;2023-02-19T08:24:30;2.00;;;1.90;;
13218;SDS011;6674;49.152;11.918;2023-02-19T08:26:58;2.43;;;1.93;;
13218;SDS011;6674;49.152;11.918;2023-02-19T08:29:26;1.90;;;1.80;;
13218;SDS011;6674;49.152;11.918;2023-02-19T08:31:53;1.80;;;1.70;;
13218;SDS011;6674;49.152;11.918;2023-02-19T08:34:19;1.77;;;1.67;;
13218;SDS011;6674;49.152;11.918;2023-02-19T08:36:46;1.70;;;1.60;;
13218;SDS011;6674;49.152;11.918;2023-02-19T08:39:14;1.80;;;1.70;;
13218;SDS011;6674;49.152;11.918;2023-02-19T08:41:40;1.63;;;1.13;;
13218;SDS011;6674;49.152;11.918;2023-02-19T08:44:07;1.50;;;1.40;;
13218;SDS011;6674;49.152;11.918;2023-02-19T08:46:34;1.53;;;1.43;;
13218;SDS011;6674;49.152;11.918;2023-02-19T08:49:01;1.60;;;1.50;;
13218;SDS011;6674;49.152;11.918;2023-02-19T08:51:28;1.40;;;1.30;;
13218;SDS011;6674;49.152;11.918;2023-02-19T08:53:55;1.50;;;1.40;;
13218;SDS011;6674;49.152;11.918;2023-02-19T08:56:23;1.30;;;1.30;;
13218;SDS011;6674;49.152;11.918;2023-02-19T08:58:49;1.43;;;1.33;;
13218;SDS011;6674;49.152;11.918;2023-02-19T09:01:16;1.50;;;1.40;;
13218;SDS011;6674;49.152;11.918;2023-02-19T09:03:43;1.60;;;1.50;;
13218;SDS011;6674;49.152;11.918;2023-02-19T09:06:12;1.73;;;1.63;;
13218;SDS011;6674;49.152;11.918;2023-02-19T09:08:41;1.20;;;1.20;;
13218;SDS011;6674;49.152;11.918;2023-02-19T09:11:08;1.30;;;1.20;;
13218;SDS011;6674;49.152;11.918;2023-02-19T09:13:36;1.10;;;1.10;;
13218;SDS011;6674;49.152;11.918;2023-02-19T09:16:05;1.30;;;1.20;;
13218;SDS011;6674;49.152;11.918;2023-02-19T09:18:32;0.83;;;0.83;;
13218;SDS011;6674;49.152;11.918;2023-02-19T09:20:59;0.90;;;0.90;;
13218;SDS011;6674;49.152;11.918;2023-02-19T09:23:26;2.33;;;1.00;;
13218;SDS011;6674;49.152;11.918;2023-02-19T09:25:55;0.93;;;0.90;;
13218;SDS011;6674;49.152;11.918;2023-02-19T09:28:22;1.17;;;1.07;;
13218;SDS011;6674;49.152;11.918;2023-02-19T09:30:50;0.70;;;0.70;;
13218;SDS011;6674;49.152;11.918;2023-02-19T09:33:18;0.93;;;0.93;;
13218;SDS011;6674;49.152;11.918;2023-02-19T09:35:45;0.70;;;0.50;;
13218;SDS011;6674;49.152;11.918;2023-02-19T09:38:11;0.80;;;0.80;;
13218;SDS011;6674;49.152;11.918;2023-02-19T09:40:38;0.70;;;0.70;;
13218;SDS011;6674;49.152;11.918;2023-02-19T09:43:05;0.60;;;0.60;;
13218;SDS011;6674;49.152;11.918;2023-02-19T09:45:33;1.13;;;1.03;;
13218;SDS011;6674;49.152;11.918;2023-02-19T09:48:09;0.90;;;0.90;;
13218;SDS011;6674;49.152;11.918;2023-02-19T09:50:38;0.80;;;0.80;;
13218;SDS011;6674;49.152;11.918;2023-02-19T09:53:12;1.30;;;1.20;;
13218;SDS011;6674;49.152;11.918;2023-02-19T09:55:41;1.23;;;1.13;;
13218;SDS011;6674;49.152;11.918;2023-02-19T09:58:14;1.47;;;1.30;;
13218;SDS011;6674;49.152;11.918;2023-02-19T10:00:49;1.30;;;1.20;;
13218;SDS011;6674;49.152;11.918;2023-02-19T10:03:20;1.70;;;1.60;;
13218;SDS011;6674;49.152;11.918;2023-02-19T10:05:56;1.30;;;1.20;;
13218;SDS011;6674;49.152;11.918;2023-02-19T10:08:29;1.70;;;1.53;;
13218;SDS011;6674;49.152;11.918;2023-02-19T10:10:57;1.43;;;1.33;;
13218;SDS011;6674;49.152;11.918;2023-02-19T10:13:27;1.40;;;1.30;;
13218;SDS011;6674;49.152;11.918;2023-02-19T10:15:57;1.53;;;1.43;;
13218;SDS011;6674;49.152;11.918;2023-02-19T10:18:31;1.80;;;1.70;;
13218;SDS011;6674;49.152;11.918;2023-02-19T10:21:05;1.70;;;1.60;;
13218;SDS011;6674;49.152;11.918;2023-02-19T10:23:32;3.20;;;1.80;;
13218;SDS011;6674;49.152;11.918;2023-02-19T10:26:00;1.73;;;1.53;;
13218;SDS011;6674;49.152;11.918;2023-02-19T10:28:28;1.80;;;1.70;;
13218;SDS011;6674;49.152;11.918;2023-02-19T10:30:58;1.67;;;1.57;;
13218;SDS011;6674;49.152;11.918;2023-02-19T10:33:25;1.53;;;1.40;;
13218;SDS011;6674;49.152;11.918;2023-02-19T10:35:55;1.73;;;1.30;;
13218;SDS011;6674;49.152;11.918;2023-02-19T10:38:25;2.40;;;1.80;;
13218;SDS011;6674;49.152;11.918;2023-02-19T10:40:58;2.50;;;2.00;;
13218;SDS011;6674;49.152;11.918;2023-02-19T10:43:29;1.97;;;1.60;;
13218;SDS011;6674;49.152;11.918;2023-02-19T10:46:03;1.93;;;1.70;;
13218;SDS011;6674;49.152;11.918;2023-02-19T10:48:39;2.10;;;1.60;;
13218;SDS011;6674;49.152;11.918;2023-02-19T10:51:11;2.33;;;2.13;;
13218;SDS011;6674;49.152;11.918;2023-02-19T10:53:46;2.37;;;2.17;;
13218;SDS011;6674;49.152;11.918;2023-02-19T10:56:15;2.50;;;2.30;;
13218;SDS011;6674;49.152;11.918;2023-02-19T10:58:48;2.50;;;2.10;;
13218;SDS011;6674;49.152;11.918;2023-02-19T11:01:17;3.57;;;2.30;;
13218;SDS011;6674;49.152;11.918;2023-02-19T11:03:45;2.33;;;2.17;;
13218;SDS011;6674;49.152;11.918;2023-02-19T11:06:14;2.10;;;2.00;;
13218;SDS011;6674;49.152;11.918;2023-02-19T11:08:49;2.30;;;2.10;;
13218;SDS011;6674;49.152;11.918;2023-02-19T11:11:22;2.53;;;2.27;;
13218;SDS011;6674;49.152;11.918;2023-02-19T11:13:50;2.63;;;2.40;;
13218;SDS011;6674;49.152;11.918;2023-02-19T11:16:18;3.40;;;2.17;;
13218;SDS011;6674;49.152;11.918;2023-02-19T11:18:51;1.90;;;1.80;;
13218;SDS011;6674;49.152;11.918;2023-02-19T11:21:23;2.40;;;1.80;;
13218;SDS011;6674;49.152;11.918;2023-02-19T11:23:52;2.63;;;1.90;;
13218;SDS011;6674;49.152;11.918;2023-02-19T11:26:21;3.07;;;2.00;;
13218;SDS011;6674;49.152;11.918;2023-02-19T11:28:54;2.30;;;1.87;;
13218;SDS011;6674;49.152;11.918;2023-02-19T11:31:22;2.90;;;1.80;;
13218;SDS011;6674;49.152;11.918;2023-02-19T11:33:54;3.10;;;2.07;;
13218;SDS011;6674;49.152;11.918;2023-02-19T11:36:25;2.50;;;1.70;;
13218;SDS011;6674;49.152;11.918;2023-02-19T11:38:54;1.43;;;1.33;;
13218;SDS011;6674;49.152;11.918;2023-02-19T11:41:26;2.20;;;1.73;;
13218;SDS011;6674;49.152;11.918;2023-02-19T11:44:10;3.47;;;2.03;;
13218;SDS011;6674;49.152;11.918;2023-02-19T11:46:52;1.90;;;1.80;;
13218;SDS011;6674;49.152;11.918;2023-02-19T11:49:27;2.17;;;1.90;;
13218;SDS011;6674;49.152;11.918;2023-02-19T11:52:12;2.57;;;2.03;;
13218;SDS011;6674;49.152;11.918;2023-02-19T11:54:51;1.83;;;1.73;;
13218;SDS011;6674;49.152;11.918;2023-02-19T11:57:29;2.00;;;1.80;;
13218;SDS011;6674;49.152;11.918;2023-02-19T12:00:20;2.93;;;2.20;;
13218;SDS011;6674;49.152;11.918;2023-02-19T12:02:59;2.40;;;2.17;;
13218;SDS011;6674;49.152;11.918;2023-02-19T12:05:39;2.57;;;2.00;;
13218;SDS011;6674;49.152;11.918;2023-02-19T12:11:16;3.53;;;2.47;;
13218;SDS011;6674;49.152;11.918;2023-02-19T12:13:56;2.97;;;2.10;;
13218;SDS011;6674;49.152;11.918;2023-02-19T12:16:37;3.30;;;2.30;;
13218;SDS011;6674;49.152;11.918;2023-02-19T12:19:17;2.70;;;2.50;;
13218;SDS011;6674;49.152;11.918;2023-02-19T12:21:55;2.83;;;2.33;;
13218;SDS011;6674;49.152;11.918;2023-02-19T12:24:47;2.83;;;2.50;;
13218;SDS011;6674;49.152;11.918;2023-02-19T12:27:25;3.17;;;2.50;;
13218;SDS011;6674;49.152;11.918;2023-02-19T12:30:14;2.60;;;2.40;;
13218;SDS011;6674;49.152;11.918;2023-02-19T12:33:00;2.50;;;2.30;;
13218;SDS011;6674;49.152;11.918;2023-02-19T12:35:54;2.97;;;2.00;;
13218;SDS011;6674;49.152;11.918;2023-02-19T12:38:29;2.63;;;2.43;;
13218;SDS011;6674;49.152;11.918;2023-02-19T12:41:08;3.33;;;2.00;;
13218;SDS011;6674;49.152;11.918;2023-02-19T12:43:52;3.10;;;2.43;;
13218;SDS011;6674;49.152;11.918;2023-02-19T12:46:24;2.20;;;2.00;;
13218;SDS011;6674;49.152;11.918;2023-02-19T12:48:57;2.40;;;2.20;;
13218;SDS011;6674;49.152;11.918;2023-02-19T12:51:29;3.13;;;2.33;;
13218;SDS011;6674;49.152;11.918;2023-02-19T12:54:01;2.50;;;2.30;;
13218;SDS011;6674;49.152;11.918;2023-02-19T12:56:35;2.97;;;2.50;;
13218;SDS011;6674;49.152;11.918;2023-02-19T12:59:09;3.67;;;2.70;;
13218;SDS011;6674;49.152;11.918;2023-02-19T13:01:42;3.53;;;2.87;;
13218;SDS011;6674;49.152;11.918;2023-02-19T13:04:16;3.27;;;2.97;;
13218;SDS011;6674;49.152;11.918;2023-02-19T13:06:50;2.97;;;2.67;;
13218;SDS011;6674;49.152;11.918;2023-02-19T13:09:22;3.73;;;3.40;;
13218;SDS011;6674;49.152;11.918;2023-02-19T13:11:57;3.53;;;3.10;;
13218;SDS011;6674;49.152;11.918;2023-02-19T13:14:29;3.70;;;3.20;;
13218;SDS011;6674;49.152;11.918;2023-02-19T13:17:00;4.03;;;3.07;;
13218;SDS011;6674;49.152;11.918;2023-02-19T13:19:37;3.33;;;2.93;;
13218;SDS011;6674;49.152;11.918;2023-02-19T13:22:07;3.37;;;3.03;;
13218;SDS011;6674;49.152;11.918;2023-02-19T13:25:03;3.10;;;2.80;;
13218;SDS011;6674;49.152;11.918;2023-02-19T13:27:39;3.83;;;3.03;;
13218;SDS011;6674;49.152;11.918;2023-02-19T13:30:21;3.30;;;2.97;;
13218;SDS011;6674;49.152;11.918;2023-02-19T13:33:01;3.77;;;3.17;;
13218;SDS011;6674;49.152;11.918;2023-02-19T13:35:54;3.57;;;3.07;;
13218;SDS011;6674;49.152;11.918;2023-02-19T13:38:31;3.87;;;2.90;;
13218;SDS011;6674;49.152;11.918;2023-02-19T13:40:59;3.80;;;3.13;;
13218;SDS011;6674;49.152;11.918;2023-02-19T13:43:30;4.13;;;2.80;;
13218;SDS011;6674;49.152;11.918;2023-02-19T13:46:01;3.83;;;3.00;;
13218;SDS011;6674;49.152;11.918;2023-02-19T13:48:32;2.80;;;2.60;;
13218;SDS011;6674;49.152;11.918;2023-02-19T13:54:23;3.77;;;2.90;;
13218;SDS011;6674;49.152;11.918;2023-02-19T13:59:53;3.23;;;2.93;;
13218;SDS011;6674;49.152;11.918;2023-02-19T14:02:23;2.80;;;2.60;;
13218;SDS011;6674;49.152;11.918;2023-02-19T14:04:53;2.87;;;2.47;;
13218;SDS011;6674;49.152;11.918;2023-02-19T14:16:30;3.13;;;2.67;;
13218;SDS011;6674;49.152;11.918;2023-02-19T14:25:30;2.43;;;2.03;;
13218;SDS011;6674;49.152;11.918;2023-02-19T14:28:03;5.07;;;2.27;;
13218;SDS011;6674;49.152;11.918;2023-02-19T14:30:47;3.37;;;2.20;;
13218;SDS011;6674;49.152;11.918;2023-02-19T14:33:17;2.60;;;2.07;;
13218;SDS011;6674;49.152;11.918;2023-02-19T14:35:48;2.67;;;2.00;;
13218;SDS011;6674;49.152;11.918;2023-02-19T14:38:19;2.60;;;2.30;;
13218;SDS011;6674;49.152;11.918;2023-02-19T14:40:48;2.50;;;2.30;;
13218;SDS011;6674;49.152;11.918;2023-02-19T14:43:18;2.83;;;2.27;;
13218;SDS011;6674;49.152;11.918;2023-02-19T14:45:47;2.90;;;2.70;;
13218;SDS011;6674;49.152;11.918;2023-02-19T14:48:19;5.40;;;3.00;;
13218;SDS011;6674;49.152;11.918;2023-02-19T14:50:48;3.53;;;2.47;;
13218;SDS011;6674;49.152;11.918;2023-02-19T14:53:23;3.63;;;2.80;;
13218;SDS011;6674;49.152;11.918;2023-02-19T14:55:52;3.27;;;2.90;;
13218;SDS011;6674;49.152;11.918;2023-02-19T14:58:21;3.80;;;2.57;;
13218;SDS011;6674;49.152;11.918;2023-02-19T15:00:51;3.77;;;3.00;;
13218;SDS011;6674;49.152;11.918;2023-02-19T15:03:25;3.23;;;2.90;;
13218;SDS011;6674;49.152;11.918;2023-02-19T15:05:54;3.00;;;2.70;;
13218;SDS011;6674;49.152;11.918;2023-02-19T15:08:27;3.00;;;2.70;;
13218;SDS011;6674;49.152;11.918;2023-02-19T15:10:58;4.00;;;3.00;;
13218;SDS011;6674;49.152;11.918;2023-02-19T15:13:28;3.47;;;2.80;;
13218;SDS011;6674;49.152;11.918;2023-02-19T15:15:56;3.30;;;2.60;;
13218;SDS011;6674;49.152;11.918;2023-02-19T15:18:26;2.70;;;2.50;;
13218;SDS011;6674;49.152;11.918;2023-02-19T15:20:57;2.60;;;2.40;;
13218;SDS011;6674;49.152;11.918;2023-02-19T15:23:27;3.73;;;2.90;;
13218;SDS011;6674;49.152;11.918;2023-02-19T15:25:56;3.27;;;2.80;;
13218;SDS011;6674;49.152;11.918;2023-02-19T15:28:27;4.27;;;2.90;;
13218;SDS011;6674;49.152;11.918;2023-02-19T15:31:02;2.90;;;2.70;;
13218;SDS011;6674;49.152;11.918;2023-02-19T15:33:33;4.00;;;2.80;;
13218;SDS011;6674;49.152;11.918;2023-02-19T15:36:00;4.13;;;3.10;;
13218;SDS011;6674;49.152;11.918;2023-02-19T15:38:29;3.30;;;3.00;;